Kapitan Rogozin — UAZN — position and weather

sailwx.info

Track history (hours):
 
Tides and Currents Weather Stations Pressure Air Temp Water Temp Dewpoint Dewpoint Depression Visibility Wind Speed Wind Dir Waves Ship Positions

Kapitan Rogozin

Last reported at 2018-Jun-07 16:52 UTC. Time now 2018-Jun-24 07:28 UTC.
Position N 70°11' E 032°01'.
Warning: this ship's position is 16 days out of date.

Length 55 m; draft 4.5 m.

Type: Fishing. MMSI: 273510600.

Date/timePositionNaut miles runAvg speedWind from/ knotsBaromVisibWave heightAir tempDewpointWater temp
2018-Jun-07 16:52N 70°11' E 032°01'0 1.3
2018-Jun-07 16:30N 70°10' E 031°60'4 7.6
2018-Jun-07 16:00N 70°10' E 031°49'5 9.2
2018-Jun-07 15:30N 70°09' E 031°36'5 9.0
2018-Jun-07 15:00N 70°08' E 031°22'5 9.0
2018-Jun-07 14:30N 70°07' E 031°09'4 9.2
2018-Jun-07 14:01N 70°06' E 030°57'5 9.1
2018-Jun-07 13:30N 70°03' E 030°45'4 9.2
2018-Jun-07 13:00N 70°00' E 030°35'5 9.4
2018-Jun-07 12:31N 69°57' E 030°24'5 9.5
2018-Jun-07 12:01N 69°54' E 030°13'5 9.5
2018-Jun-07 11:30N 69°50' E 030°07'5 9.5
2018-Jun-07 11:00N 69°45' E 030°05'2 3.4
2018-Jun-07 10:31N 69°44' E 030°05'0 0.0
2018-Jun-07 10:01N 69°44' E 030°05'0 0.0
2018-Jun-07 09:30N 69°44' E 030°05'0 0.0
2018-Jun-07 09:00N 69°44' E 030°05'0 0.0
2018-Jun-07 08:29N 69°44' E 030°05'0 0.0
2018-Jun-07 07:59N 69°44' E 030°05'0 0.0
2018-Jun-07 07:29N 69°44' E 030°05'0 0.0
2018-Jun-07 07:01N 69°44' E 030°05'0 0.0
2018-Jun-07 06:31N 69°44' E 030°05'0 0.0
2018-Jun-07 05:58N 69°44' E 030°05'0 0.0
2018-Jun-07 05:30N 69°44' E 030°05'3 5.6
2018-Jun-07 04:59N 69°47' E 030°05'3 7.2
2018-Jun-07 04:30N 69°50' E 030°06'3 6.6
2018-Jun-07 04:00N 69°53' E 030°08'2 4.5
2018-Jun-07 03:30N 69°55' E 030°13'2 4.5
2018-Jun-07 03:00N 69°56' E 030°19'2 4.4
2018-Jun-07 02:30N 69°57' E 030°24'2 4.7
2018-Jun-07 02:00N 69°59' E 030°29'2 3.8
2018-Jun-07 01:30N 69°60' E 030°34'2 4.4
2018-Jun-07 00:59N 70°01' E 030°39'2 4.9
2018-Jun-07 00:30N 70°03' E 030°45'3 5.0
2018-Jun-07 00:00N 70°04' E 030°51'3 5.1
2018-Jun-06 23:30N 70°06' E 030°57'3 6.6
2018-Jun-06 23:00N 70°07' E 031°06'4 9.0
2018-Jun-06 22:30N 70°07' E 031°19'5 9.1
2018-Jun-06 22:00N 70°08' E 031°32'3 5.2
2018-Jun-06 21:30N 70°09' E 031°39'3 5.9
2018-Jun-06 20:59N 70°10' E 031°48'3 7.1
2018-Jun-06 20:30N 70°12' E 031°57'72 3.2
2018-Jun-05 22:06N 69°03' E 033°04'1 5.6
2018-Jun-05 22:00N 69°03' E 033°04'3 6.4
2018-Jun-05 21:30N 68°60' E 033°03'2 4.6
2018-Jun-05 21:00N 68°57' E 033°01'0 0.1
2018-Jun-05 20:31N 68°57' E 033°01'0 0.0
2018-Jun-05 19:58N 68°57' E 033°01'0 0.0
2018-Jun-05 19:30N 68°57' E 033°01'0 0.0
2018-Jun-05 19:01N 68°57' E 033°01'0 0.0
2018-Jun-05 18:24N 68°57' E 033°01'0 0.0
2018-Jun-05 18:00N 68°57' E 033°01'0 0.0
2018-Jun-05 17:30N 68°57' E 033°01'0 0.1
2018-Jun-05 17:01N 68°57' E 033°01'0 0.1
2018-Jun-05 16:31N 68°57' E 033°01'1 1.1
2018-Jun-05 15:59N 68°57' E 033°01'0 0.0
2018-Jun-05 15:28N 68°57' E 033°01'0 0.0
2018-Jun-05 14:58N 68°57' E 033°01'0 0.0
2018-Jun-05 14:28N 68°57' E 033°01'0 0.0
2018-Jun-05 13:59N 68°57' E 033°01'0 0.0
2018-Jun-05 13:29N 68°57' E 033°01'0 0.0
2018-Jun-05 12:58N 68°57' E 033°01'0 0.0
2018-Jun-05 12:29N 68°57' E 033°01'0 0.0
2018-Jun-05 11:57N 68°57' E 033°01'0 0.0
2018-Jun-05 11:31N 68°57' E 033°01'0 0.0
2018-Jun-05 10:58N 68°57' E 033°01'0 0.0
2018-Jun-05 10:27N 68°57' E 033°01'0 0.0
2018-Jun-05 09:57N 68°57' E 033°01'0 0.0
2018-Jun-05 09:28N 68°57' E 033°01'0 0.0
2018-Jun-05 08:59N 68°57' E 033°01'0 0.0
2018-Jun-05 08:29N 68°57' E 033°01'0 0.0
2018-Jun-05 07:59N 68°57' E 033°01'0 0.0
2018-Jun-05 07:28N 68°57' E 033°01'0 0.0
2018-Jun-05 07:01N 68°57' E 033°01'0 0.0
2018-Jun-05 06:28N 68°57' E 033°01'0 0.0
2018-Jun-05 05:59N 68°57' E 033°01'0 0.0
2018-Jun-05 05:31N 68°57' E 033°01'0 0.0
2018-Jun-05 05:00N 68°57' E 033°01'0 0.0
2018-Jun-05 04:29N 68°57' E 033°01'0 0.0
2018-Jun-05 04:00N 68°57' E 033°01'0 0.0
2018-Jun-05 03:29N 68°57' E 033°01'0 0.0
2018-Jun-05 02:58N 68°57' E 033°01'0 0.0
2018-Jun-05 02:30N 68°57' E 033°01'0 0.0
2018-Jun-05 01:59N 68°57' E 033°01'0 0.0
2018-Jun-05 01:30N 68°57' E 033°01'0 0.0
2018-Jun-05 00:57N 68°57' E 033°01'0 0.0
2018-Jun-05 00:29N 68°57' E 033°01'0 0.0
2018-Jun-05 00:01N 68°57' E 033°01'0 0.0
2018-Jun-04 23:30N 68°57' E 033°01'0 0.0
2018-Jun-04 22:59N 68°57' E 033°01'0 0.0
2018-Jun-04 22:29N 68°57' E 033°01'0 0.0
2018-Jun-04 21:59N 68°57' E 033°01'0 0.0
2018-Jun-04 21:30N 68°57' E 033°01'0 0.0
2018-Jun-04 20:56N 68°57' E 033°01'0 0.0
2018-Jun-04 20:28N 68°57' E 033°01'0 0.0
2018-Jun-04 19:59N 68°57' E 033°01'0 0.0
2018-Jun-04 19:28N 68°57' E 033°01'0 0.0
2018-Jun-04 19:00N 68°57' E 033°01'0 0.0
2018-Jun-04 18:26N 68°57' E 033°01'0 0.0
2018-Jun-04 17:59N 68°57' E 033°01'0 0.0
2018-Jun-04 17:29N 68°57' E 033°01'0 0.0
2018-Jun-04 17:00N 68°57' E 033°01'0 0.0
2018-Jun-04 16:31N 68°57' E 033°01'0 0.0
2018-Jun-04 15:59N 68°57' E 033°01'0 0.0
2018-Jun-04 15:29N 68°57' E 033°01'0 0.0
2018-Jun-04 14:59N 68°57' E 033°01'0 0.0
2018-Jun-04 14:29N 68°57' E 033°01'0 0.0
2018-Jun-04 13:59N 68°57' E 033°01'0 0.0
2018-Jun-04 13:29N 68°57' E 033°01'0 0.0
2018-Jun-04 12:54N 68°57' E 033°01'0 0.0
2018-Jun-04 12:30N 68°57' E 033°01'0 0.0
2018-Jun-04 12:01N 68°57' E 033°01'0 0.0
2018-Jun-04 11:28N 68°57' E 033°01'0 0.0
2018-Jun-04 10:55N 68°57' E 033°01'0 0.0
2018-Jun-04 10:28N 68°57' E 033°01'0 0.0
2018-Jun-04 09:57N 68°57' E 033°01'0 0.0
2018-Jun-04 09:30N 68°57' E 033°01'0 0.0
2018-Jun-04 08:58N 68°57' E 033°01'0 0.0
2018-Jun-04 08:28N 68°57' E 033°01'0 0.0
2018-Jun-04 08:00N 68°57' E 033°01'0 0.0
2018-Jun-04 07:29N 68°57' E 033°01'0 0.0
2018-Jun-04 06:58N 68°57' E 033°01'0 0.0
2018-Jun-04 06:31N 68°57' E 033°01'0 0.0
2018-Jun-04 05:51N 68°57' E 033°01'0 0.0
2018-Jun-04 05:28N 68°57' E 033°01'0 0.0
2018-Jun-04 04:56N 68°57' E 033°01'0 0.0
2018-Jun-04 04:28N 68°57' E 033°01'0 0.0
2018-Jun-04 04:00N 68°57' E 033°01'0 0.0
2018-Jun-04 03:30N 68°57' E 033°01'0 0.0
2018-Jun-04 03:00N 68°57' E 033°01'0 0.0
2018-Jun-04 02:28N 68°57' E 033°01'0 0.0
2018-Jun-04 01:56N 68°57' E 033°01'0 0.0
2018-Jun-04 01:28N 68°57' E 033°01'0 0.0
2018-Jun-04 01:00N 68°57' E 033°01'0 0.0
2018-Jun-04 00:29N 68°57' E 033°01'0 0.0
2018-Jun-04 00:00N 68°57' E 033°01'0 0.0
2018-Jun-03 23:30N 68°57' E 033°01'0 0.0
2018-Jun-03 22:55N 68°57' E 033°01'0 0.0
2018-Jun-03 22:28N 68°57' E 033°01'0 0.0
2018-Jun-03 22:00N 68°57' E 033°01'0 0.0
2018-Jun-03 21:27N 68°57' E 033°01'0 0.0
2018-Jun-03 20:58N 68°57' E 033°01'0 0.0
2018-Jun-03 20:28N 68°57' E 033°01'0 0.0
2018-Jun-03 19:56N 68°57' E 033°01'0 0.0
2018-Jun-03 19:30N 68°57' E 033°01'0 0.0
2018-Jun-03 18:58N 68°57' E 033°01'0 0.0
2018-Jun-03 18:30N 68°57' E 033°01'0 0.0
2018-Jun-03 18:00N 68°57' E 033°01'0 0.0
2018-Jun-03 17:27N 68°57' E 033°01'0 0.0
2018-Jun-03 17:00N 68°57' E 033°01'0 0.0
2018-Jun-03 16:26N 68°57' E 033°01'0 0.0
2018-Jun-03 15:57N 68°57' E 033°01'0 0.0
2018-Jun-03 15:30N 68°57' E 033°01'0 0.0
2018-Jun-03 14:56N 68°57' E 033°01'0 0.0
2018-Jun-03 14:29N 68°57' E 033°01'0 0.0
2018-Jun-03 13:57N 68°57' E 033°01'0 0.0
2018-Jun-03 13:30N 68°57' E 033°01'0 0.0
2018-Jun-03 12:58N 68°57' E 033°01'0 0.0
2018-Jun-03 12:30N 68°57' E 033°01'0 0.0
2018-Jun-03 11:58N 68°57' E 033°01'0 0.0
2018-Jun-03 11:24N 68°57' E 033°01'0 0.0
2018-Jun-03 10:58N 68°57' E 033°01'0 0.0
2018-Jun-03 10:28N 68°57' E 033°01'0 0.0
2018-Jun-03 09:57N 68°57' E 033°01'0 0.0
2018-Jun-03 09:28N 68°57' E 033°01'0 0.0
2018-Jun-03 08:58N 68°57' E 033°01'0 0.0
2018-Jun-03 08:31N 68°57' E 033°01'0 0.0
2018-Jun-03 07:59N 68°57' E 033°01'0 0.0
2018-Jun-03 07:27N 68°57' E 033°01'0 0.0
2018-Jun-03 07:00N 68°57' E 033°01'0 0.0
2018-Jun-03 06:25N 68°57' E 033°01'0 0.0
2018-Jun-03 05:59N 68°57' E 033°01'0 0.0
2018-Jun-03 05:30N 68°57' E 033°01'0 0.0
2018-Jun-03 04:59N 68°57' E 033°01'0 0.0
2018-Jun-03 04:25N 68°57' E 033°01'0 0.0
2018-Jun-03 03:59N 68°57' E 033°01'0 0.0
2018-Jun-03 03:30N 68°57' E 033°01'0 0.0
2018-Jun-03 03:00N 68°57' E 033°01'0 0.0
2018-Jun-03 02:30N 68°57' E 033°01'0 0.0
2018-Jun-03 02:00N 68°57' E 033°01'0 0.0
2018-Jun-03 01:30N 68°57' E 033°01'0 0.0
2018-Jun-03 01:00N 68°57' E 033°01'0 0.0
2018-Jun-03 00:26N 68°57' E 033°01'0 0.0
2018-Jun-03 00:00N 68°57' E 033°01'0 0.0
2018-Jun-02 23:25N 68°57' E 033°01'0 0.0
2018-Jun-02 22:56N 68°57' E 033°01'0 0.0
2018-Jun-02 22:27N 68°57' E 033°01'0 0.0
2018-Jun-02 21:58N 68°57' E 033°01'0 0.0
2018-Jun-02 21:29N 68°57' E 033°01'0 0.0
2018-Jun-02 20:58N 68°57' E 033°01'0 0.0
2018-Jun-02 20:24N 68°57' E 033°01'0 0.0
2018-Jun-02 19:59N 68°57' E 033°01'0 0.0
2018-Jun-02 19:28N 68°57' E 033°01'0 0.0
2018-Jun-02 18:58N 68°57' E 033°01'0 0.0
2018-Jun-02 18:29N 68°57' E 033°01'0 0.0
2018-Jun-02 18:00N 68°57' E 033°01'0 0.0
2018-Jun-02 17:18N 68°57' E 033°01'0 0.0
2018-Jun-02 16:57N 68°57' E 033°01'0 0.0
2018-Jun-02 16:30N 68°57' E 033°01'0 0.0
2018-Jun-02 15:59N 68°57' E 033°01'0 0.0
2018-Jun-02 15:29N 68°57' E 033°01'0 0.0
2018-Jun-02 14:59N 68°57' E 033°01'0 0.0
2018-Jun-02 14:29N 68°57' E 033°01'0 0.0
2018-Jun-02 13:59N 68°57' E 033°01'0 0.0
2018-Jun-02 13:29N 68°57' E 033°01'0 0.0
2018-Jun-02 12:58N 68°57' E 033°01'0 0.0
2018-Jun-02 12:30N 68°57' E 033°01'0 0.0
2018-Jun-02 11:58N 68°57' E 033°01'0 0.0
2018-Jun-02 11:29N 68°57' E 033°01'0 0.0
2018-Jun-02 10:56N 68°57' E 033°01'0 0.0
2018-Jun-02 10:25N 68°57' E 033°01'0 0.0
2018-Jun-02 09:58N 68°57' E 033°01'0 0.0
2018-Jun-02 09:30N 68°57' E 033°01'1 1.6
2018-Jun-02 08:56N 68°57' E 033°01'0 0.1
2018-Jun-02 08:24N 68°57' E 033°01'0 0.1
2018-Jun-02 07:56N 68°57' E 033°01'0 0.0
2018-Jun-02 07:30N 68°57' E 033°01'0 0.0
2018-Jun-02 07:00N 68°57' E 033°01'0 0.0
2018-Jun-02 06:28N 68°57' E 033°01'0 0.0
2018-Jun-02 06:00N 68°57' E 033°01'0 0.0
2018-Jun-02 05:30N 68°57' E 033°01'0 0.0
2018-Jun-02 04:53N 68°57' E 033°01'1 1.4
2018-Jun-02 04:31N 68°58' E 033°02'3 5.7
2018-Jun-02 04:01N 69°01' E 033°03'  
Track history (hours):
 
Tides and Currents Weather Stations Pressure Air Temp Water Temp Dewpoint Dewpoint Depression Visibility Wind Speed Wind Dir Waves Ship Positions

Kapitan Rogozin

Last reported at 2018-Jun-07 16:52 UTC. Time now 2018-Jun-24 07:28 UTC.
Position N 70°11' E 032°01'.
Warning: this ship's position is 16 days out of date.

Length 55 m; draft 4.5 m.

Type: Fishing. MMSI: 273510600.

Date/timePositionNaut miles runAvg speedWind from/ knotsBaromVisibWave heightAir tempDewpointWater temp
2018-Jun-07 16:52N 70°11' E 032°01'0 1.3
2018-Jun-07 16:30N 70°10' E 031°60'4 7.6
2018-Jun-07 16:00N 70°10' E 031°49'5 9.2
2018-Jun-07 15:30N 70°09' E 031°36'5 9.0
2018-Jun-07 15:00N 70°08' E 031°22'5 9.0
2018-Jun-07 14:30N 70°07' E 031°09'4 9.2
2018-Jun-07 14:01N 70°06' E 030°57'5 9.1
2018-Jun-07 13:30N 70°03' E 030°45'4 9.2
2018-Jun-07 13:00N 70°00' E 030°35'5 9.4
2018-Jun-07 12:31N 69°57' E 030°24'5 9.5
2018-Jun-07 12:01N 69°54' E 030°13'5 9.5
2018-Jun-07 11:30N 69°50' E 030°07'5 9.5
2018-Jun-07 11:00N 69°45' E 030°05'2 3.4
2018-Jun-07 10:31N 69°44' E 030°05'0 0.0
2018-Jun-07 10:01N 69°44' E 030°05'0 0.0
2018-Jun-07 09:30N 69°44' E 030°05'0 0.0
2018-Jun-07 09:00N 69°44' E 030°05'0 0.0
2018-Jun-07 08:29N 69°44' E 030°05'0 0.0
2018-Jun-07 07:59N 69°44' E 030°05'0 0.0
2018-Jun-07 07:29N 69°44' E 030°05'0 0.0
2018-Jun-07 07:01N 69°44' E 030°05'0 0.0
2018-Jun-07 06:31N 69°44' E 030°05'0 0.0
2018-Jun-07 05:58N 69°44' E 030°05'0 0.0
2018-Jun-07 05:30N 69°44' E 030°05'3 5.6
2018-Jun-07 04:59N 69°47' E 030°05'3 7.2
2018-Jun-07 04:30N 69°50' E 030°06'3 6.6
2018-Jun-07 04:00N 69°53' E 030°08'2 4.5
2018-Jun-07 03:30N 69°55' E 030°13'2 4.5
2018-Jun-07 03:00N 69°56' E 030°19'2 4.4
2018-Jun-07 02:30N 69°57' E 030°24'2 4.7
2018-Jun-07 02:00N 69°59' E 030°29'2 3.8
2018-Jun-07 01:30N 69°60' E 030°34'2 4.4
2018-Jun-07 00:59N 70°01' E 030°39'2 4.9
2018-Jun-07 00:30N 70°03' E 030°45'3 5.0
2018-Jun-07 00:00N 70°04' E 030°51'3 5.1
2018-Jun-06 23:30N 70°06' E 030°57'3 6.6
2018-Jun-06 23:00N 70°07' E 031°06'4 9.0
2018-Jun-06 22:30N 70°07' E 031°19'5 9.1
2018-Jun-06 22:00N 70°08' E 031°32'3 5.2
2018-Jun-06 21:30N 70°09' E 031°39'3 5.9
2018-Jun-06 20:59N 70°10' E 031°48'3 7.1
2018-Jun-06 20:30N 70°12' E 031°57'72 3.2
2018-Jun-05 22:06N 69°03' E 033°04'1 5.6
2018-Jun-05 22:00N 69°03' E 033°04'3 6.4
2018-Jun-05 21:30N 68°60' E 033°03'2 4.6
2018-Jun-05 21:00N 68°57' E 033°01'0 0.1
2018-Jun-05 20:31N 68°57' E 033°01'0 0.0
2018-Jun-05 19:58N 68°57' E 033°01'0 0.0
2018-Jun-05 19:30N 68°57' E 033°01'0 0.0
2018-Jun-05 19:01N 68°57' E 033°01'0 0.0
2018-Jun-05 18:24N 68°57' E 033°01'0 0.0
2018-Jun-05 18:00N 68°57' E 033°01'0 0.0
2018-Jun-05 17:30N 68°57' E 033°01'0 0.1
2018-Jun-05 17:01N 68°57' E 033°01'0 0.1
2018-Jun-05 16:31N 68°57' E 033°01'1 1.1
2018-Jun-05 15:59N 68°57' E 033°01'0 0.0
2018-Jun-05 15:28N 68°57' E 033°01'0 0.0
2018-Jun-05 14:58N 68°57' E 033°01'0 0.0
2018-Jun-05 14:28N 68°57' E 033°01'0 0.0
2018-Jun-05 13:59N 68°57' E 033°01'0 0.0
2018-Jun-05 13:29N 68°57' E 033°01'0 0.0
2018-Jun-05 12:58N 68°57' E 033°01'0 0.0
2018-Jun-05 12:29N 68°57' E 033°01'0 0.0
2018-Jun-05 11:57N 68°57' E 033°01'0 0.0
2018-Jun-05 11:31N 68°57' E 033°01'0 0.0
2018-Jun-05 10:58N 68°57' E 033°01'0 0.0
2018-Jun-05 10:27N 68°57' E 033°01'0 0.0
2018-Jun-05 09:57N 68°57' E 033°01'0 0.0
2018-Jun-05 09:28N 68°57' E 033°01'0 0.0
2018-Jun-05 08:59N 68°57' E 033°01'0 0.0
2018-Jun-05 08:29N 68°57' E 033°01'0 0.0
2018-Jun-05 07:59N 68°57' E 033°01'0 0.0
2018-Jun-05 07:28N 68°57' E 033°01'0 0.0
2018-Jun-05 07:01N 68°57' E 033°01'0 0.0
2018-Jun-05 06:28N 68°57' E 033°01'0 0.0
2018-Jun-05 05:59N 68°57' E 033°01'0 0.0
2018-Jun-05 05:31N 68°57' E 033°01'0 0.0
2018-Jun-05 05:00N 68°57' E 033°01'0 0.0
2018-Jun-05 04:29N 68°57' E 033°01'0 0.0
2018-Jun-05 04:00N 68°57' E 033°01'0 0.0
2018-Jun-05 03:29N 68°57' E 033°01'0 0.0
2018-Jun-05 02:58N 68°57' E 033°01'0 0.0
2018-Jun-05 02:30N 68°57' E 033°01'0 0.0
2018-Jun-05 01:59N 68°57' E 033°01'0 0.0
2018-Jun-05 01:30N 68°57' E 033°01'0 0.0
2018-Jun-05 00:57N 68°57' E 033°01'0 0.0
2018-Jun-05 00:29N 68°57' E 033°01'0 0.0
2018-Jun-05 00:01N 68°57' E 033°01'0 0.0
2018-Jun-04 23:30N 68°57' E 033°01'0 0.0
2018-Jun-04 22:59N 68°57' E 033°01'0 0.0
2018-Jun-04 22:29N 68°57' E 033°01'0 0.0
2018-Jun-04 21:59N 68°57' E 033°01'0 0.0
2018-Jun-04 21:30N 68°57' E 033°01'0 0.0
2018-Jun-04 20:56N 68°57' E 033°01'0 0.0
2018-Jun-04 20:28N 68°57' E 033°01'0 0.0
2018-Jun-04 19:59N 68°57' E 033°01'0 0.0
2018-Jun-04 19:28N 68°57' E 033°01'0 0.0
2018-Jun-04 19:00N 68°57' E 033°01'0 0.0
2018-Jun-04 18:26N 68°57' E 033°01'0 0.0
2018-Jun-04 17:59N 68°57' E 033°01'0 0.0
2018-Jun-04 17:29N 68°57' E 033°01'0 0.0
2018-Jun-04 17:00N 68°57' E 033°01'0 0.0
2018-Jun-04 16:31N 68°57' E 033°01'0 0.0
2018-Jun-04 15:59N 68°57' E 033°01'0 0.0
2018-Jun-04 15:29N 68°57' E 033°01'0 0.0
2018-Jun-04 14:59N 68°57' E 033°01'0 0.0
2018-Jun-04 14:29N 68°57' E 033°01'0 0.0
2018-Jun-04 13:59N 68°57' E 033°01'0 0.0
2018-Jun-04 13:29N 68°57' E 033°01'0 0.0
2018-Jun-04 12:54N 68°57' E 033°01'0 0.0
2018-Jun-04 12:30N 68°57' E 033°01'0 0.0
2018-Jun-04 12:01N 68°57' E 033°01'0 0.0
2018-Jun-04 11:28N 68°57' E 033°01'0 0.0
2018-Jun-04 10:55N 68°57' E 033°01'0 0.0
2018-Jun-04 10:28N 68°57' E 033°01'0 0.0
2018-Jun-04 09:57N 68°57' E 033°01'0 0.0
2018-Jun-04 09:30N 68°57' E 033°01'0 0.0
2018-Jun-04 08:58N 68°57' E 033°01'0 0.0
2018-Jun-04 08:28N 68°57' E 033°01'0 0.0
2018-Jun-04 08:00N 68°57' E 033°01'0 0.0
2018-Jun-04 07:29N 68°57' E 033°01'0 0.0
2018-Jun-04 06:58N 68°57' E 033°01'0 0.0
2018-Jun-04 06:31N 68°57' E 033°01'0 0.0
2018-Jun-04 05:51N 68°57' E 033°01'0 0.0
2018-Jun-04 05:28N 68°57' E 033°01'0 0.0
2018-Jun-04 04:56N 68°57' E 033°01'0 0.0
2018-Jun-04 04:28N 68°57' E 033°01'0 0.0
2018-Jun-04 04:00N 68°57' E 033°01'0 0.0
2018-Jun-04 03:30N 68°57' E 033°01'0 0.0
2018-Jun-04 03:00N 68°57' E 033°01'0 0.0
2018-Jun-04 02:28N 68°57' E 033°01'0 0.0
2018-Jun-04 01:56N 68°57' E 033°01'0 0.0
2018-Jun-04 01:28N 68°57' E 033°01'0 0.0
2018-Jun-04 01:00N 68°57' E 033°01'0 0.0
2018-Jun-04 00:29N 68°57' E 033°01'0 0.0
2018-Jun-04 00:00N 68°57' E 033°01'0 0.0
2018-Jun-03 23:30N 68°57' E 033°01'0 0.0
2018-Jun-03 22:55N 68°57' E 033°01'0 0.0
2018-Jun-03 22:28N 68°57' E 033°01'0 0.0
2018-Jun-03 22:00N 68°57' E 033°01'0 0.0
2018-Jun-03 21:27N 68°57' E 033°01'0 0.0
2018-Jun-03 20:58N 68°57' E 033°01'0 0.0
2018-Jun-03 20:28N 68°57' E 033°01'0 0.0
2018-Jun-03 19:56N 68°57' E 033°01'0 0.0
2018-Jun-03 19:30N 68°57' E 033°01'0 0.0
2018-Jun-03 18:58N 68°57' E 033°01'0 0.0
2018-Jun-03 18:30N 68°57' E 033°01'0 0.0
2018-Jun-03 18:00N 68°57' E 033°01'0 0.0
2018-Jun-03 17:27N 68°57' E 033°01'0 0.0
2018-Jun-03 17:00N 68°57' E 033°01'0 0.0
2018-Jun-03 16:26N 68°57' E 033°01'0 0.0
2018-Jun-03 15:57N 68°57' E 033°01'0 0.0
2018-Jun-03 15:30N 68°57' E 033°01'0 0.0
2018-Jun-03 14:56N 68°57' E 033°01'0 0.0
2018-Jun-03 14:29N 68°57' E 033°01'0 0.0
2018-Jun-03 13:57N 68°57' E 033°01'0 0.0
2018-Jun-03 13:30N 68°57' E 033°01'0 0.0
2018-Jun-03 12:58N 68°57' E 033°01'0 0.0
2018-Jun-03 12:30N 68°57' E 033°01'0 0.0
2018-Jun-03 11:58N 68°57' E 033°01'0 0.0
2018-Jun-03 11:24N 68°57' E 033°01'0 0.0
2018-Jun-03 10:58N 68°57' E 033°01'0 0.0
2018-Jun-03 10:28N 68°57' E 033°01'0 0.0
2018-Jun-03 09:57N 68°57' E 033°01'0 0.0
2018-Jun-03 09:28N 68°57' E 033°01'0 0.0
2018-Jun-03 08:58N 68°57' E 033°01'0 0.0
2018-Jun-03 08:31N 68°57' E 033°01'0 0.0
2018-Jun-03 07:59N 68°57' E 033°01'0 0.0
2018-Jun-03 07:27N 68°57' E 033°01'0 0.0
2018-Jun-03 07:00N 68°57' E 033°01'0 0.0
2018-Jun-03 06:25N 68°57' E 033°01'0 0.0
2018-Jun-03 05:59N 68°57' E 033°01'0 0.0
2018-Jun-03 05:30N 68°57' E 033°01'0 0.0
2018-Jun-03 04:59N 68°57' E 033°01'0 0.0
2018-Jun-03 04:25N 68°57' E 033°01'0 0.0
2018-Jun-03 03:59N 68°57' E 033°01'0 0.0
2018-Jun-03 03:30N 68°57' E 033°01'0 0.0
2018-Jun-03 03:00N 68°57' E 033°01'0 0.0
2018-Jun-03 02:30N 68°57' E 033°01'0 0.0
2018-Jun-03 02:00N 68°57' E 033°01'0 0.0
2018-Jun-03 01:30N 68°57' E 033°01'0 0.0
2018-Jun-03 01:00N 68°57' E 033°01'0 0.0
2018-Jun-03 00:26N 68°57' E 033°01'0 0.0
2018-Jun-03 00:00N 68°57' E 033°01'0 0.0
2018-Jun-02 23:25N 68°57' E 033°01'0 0.0
2018-Jun-02 22:56N 68°57' E 033°01'0 0.0
2018-Jun-02 22:27N 68°57' E 033°01'0 0.0
2018-Jun-02 21:58N 68°57' E 033°01'0 0.0
2018-Jun-02 21:29N 68°57' E 033°01'0 0.0
2018-Jun-02 20:58N 68°57' E 033°01'0 0.0
2018-Jun-02 20:24N 68°57' E 033°01'0 0.0
2018-Jun-02 19:59N 68°57' E 033°01'0 0.0
2018-Jun-02 19:28N 68°57' E 033°01'0 0.0
2018-Jun-02 18:58N 68°57' E 033°01'0 0.0
2018-Jun-02 18:29N 68°57' E 033°01'0 0.0
2018-Jun-02 18:00N 68°57' E 033°01'0 0.0
2018-Jun-02 17:18N 68°57' E 033°01'0 0.0
2018-Jun-02 16:57N 68°57' E 033°01'0 0.0
2018-Jun-02 16:30N 68°57' E 033°01'0 0.0
2018-Jun-02 15:59N 68°57' E 033°01'0 0.0
2018-Jun-02 15:29N 68°57' E 033°01'0 0.0
2018-Jun-02 14:59N 68°57' E 033°01'0 0.0
2018-Jun-02 14:29N 68°57' E 033°01'0 0.0
2018-Jun-02 13:59N 68°57' E 033°01'0 0.0
2018-Jun-02 13:29N 68°57' E 033°01'0 0.0
2018-Jun-02 12:58N 68°57' E 033°01'0 0.0
2018-Jun-02 12:30N 68°57' E 033°01'0 0.0
2018-Jun-02 11:58N 68°57' E 033°01'0 0.0
2018-Jun-02 11:29N 68°57' E 033°01'0 0.0
2018-Jun-02 10:56N 68°57' E 033°01'0 0.0
2018-Jun-02 10:25N 68°57' E 033°01'0 0.0
2018-Jun-02 09:58N 68°57' E 033°01'0 0.0
2018-Jun-02 09:30N 68°57' E 033°01'1 1.6
2018-Jun-02 08:56N 68°57' E 033°01'0 0.1
2018-Jun-02 08:24N 68°57' E 033°01'0 0.1
2018-Jun-02 07:56N 68°57' E 033°01'0 0.0
2018-Jun-02 07:30N 68°57' E 033°01'0 0.0
2018-Jun-02 07:00N 68°57' E 033°01'0 0.0
2018-Jun-02 06:28N 68°57' E 033°01'0 0.0
2018-Jun-02 06:00N 68°57' E 033°01'0 0.0
2018-Jun-02 05:30N 68°57' E 033°01'0 0.0
2018-Jun-02 04:53N 68°57' E 033°01'1 1.4
2018-Jun-02 04:31N 68°58' E 033°02'3 5.7
2018-Jun-02 04:01N 69°01' E 033°03'  

Dump ship's entire track history